METAR Data
IDs: Format: Raw Decoded Include TAF

Data at: 1738 UTC 16 Oct 2021

KBYY 161735Z AUTO 04012G19KT 10SM CLR 22/06 A3027 RMK AO2 T02180067
KBYY 161715Z AUTO 04015G20KT 10SM CLR 21/07 A3028 RMK AO2 T02140073
KBYY 161655Z AUTO 04014G19KT 10SM CLR 21/07 A3028 RMK AO2 T02100076
KBYY 161635Z AUTO 04014G23KT 10SM CLR 20/07 A3028 RMK AO2 T02070079
KBYY 161615Z AUTO 06015G21KT 10SM CLR 20/07 A3028 RMK AO2 T02030082
KBYY 161555Z AUTO 03015G23KT 10SM CLR 20/08 A3028 RMK AO2 T02000089
KBYY 161535Z AUTO 03017G23KT 10SM CLR 19/08 A3027 RMK AO2 T01950088
KBYY 161515Z AUTO 04017G24KT 10SM CLR 19/08 A3027 RMK AO2 T01900088
KBYY 161455Z AUTO 04015G25KT 10SM CLR 18/09 A3027 RMK AO2 T01870093
KBYY 161435Z AUTO 05016G24KT 10SM CLR 18/10 A3027 RMK AO2 T01820098
KBYY 161415Z AUTO 05014G22KT 10SM SCT070 17/09 A3026 RMK AO2 T01730098
KBYY 161355Z AUTO 03012G18KT 10SM SCT070 17/10 A3026 RMK AO2 T01720101
KBYY 161335Z AUTO 03011KT 10SM CLR 16/10 A3025 RMK AO2 T01660099
KBYY 161315Z AUTO 03012G16KT 10SM SCT085 16/10 A3024 RMK AO2 T01620097
KBYY 161255Z AUTO 02009KT 10SM SCT085 16/10 A3023 RMK AO2 T01610097
KBYY 161235Z AUTO 03009G14KT 10SM SCT085 16/10 A3023 RMK AO2 T01630097
KBYY 161215Z AUTO 03009KT 10SM SCT085 16/10 A3022 RMK AO2 T01620096
KBYY 161155Z AUTO 02010KT 10SM CLR 16/09 A3022 RMK AO2 T01650096
KBYY 161135Z AUTO 02009KT 10SM CLR 16/09 A3021 RMK AO2 T01680096
KBYY 161115Z AUTO 02010G16KT 10SM CLR 17/10 A3020 RMK AO2 T01710097
KBYY 161055Z AUTO 03012G16KT 10SM CLR 17/10 A3019 RMK AO2 T01740099
KBYY 161035Z AUTO 02011G15KT 10SM CLR 17/10 A3017 RMK AO2 T01760103
KBYY 161015Z AUTO 02013G16KT 10SM CLR 17/10 A3016 RMK AO2 T01800105
KBYY 160955Z AUTO 02013KT 10SM CLR 18/10 A3016 RMK AO2 T01830106
KBYY 160935Z AUTO 02012G17KT 10SM CLR 18/11 A3014 RMK AO2 T01850110
KBYY 160915Z AUTO 02012G21KT 10SM CLR 18/11 A3014 RMK AO2 T01870112
KBYY 160855Z AUTO 02014G19KT 10SM CLR 18/11 A3013 RMK AO2 T01900119
KBYY 160835Z AUTO 02014G19KT 10SM CLR 18/12 A3013 RMK AO2 T01910124
KBYY 160815Z AUTO 02011G17KT 10SM CLR 19/12 A3013 RMK AO2 T01950129
KBYY 160755Z AUTO 01013G19KT 10SM CLR 19/13 A3012 RMK AO2 T01980133
KBYY 160735Z AUTO 01012G16KT 10SM CLR 20/13 A3012 RMK AO2 T02020136
KBYY 160715Z AUTO 01013G19KT 10SM CLR 20/13 A3012 RMK AO2 T02060143
KBYY 160655Z AUTO 01012G17KT 10SM CLR 20/15 A3012 RMK AO2 T02080153
KBYY 160635Z AUTO 02014G18KT 10SM CLR 21/16 A3011 RMK AO2 T02110161
KBYY 160615Z AUTO 01013G19KT 10SM CLR 21/16 A3010 RMK AO2 T02130165
KBYY 160555Z AUTO 01012G18KT 10SM CLR 21/16 A3010 RMK AO2 T02150169
KBYY 160535Z AUTO 01013G16KT 10SM CLR 21/17 A3009 RMK AO2 T02170171
KBYY 160515Z AUTO 01014G18KT 10SM CLR 21/17 A3009 RMK AO2 T02200172
KBYY 160455Z AUTO 01011G18KT 10SM CLR 22/17 A3009 RMK AO2 T02240174
KBYY 160435Z AUTO 01014G24KT 10SM CLR 22/17 A3008 RMK AO2 T02270181
KBYY 160415Z AUTO 36013G19KT 10SM CLR 22/18 A3008 RMK AO2 T02300189
KBYY 160355Z AUTO 01012G16KT 10SM CLR 22/18 A3008 RMK AO2 T02300194
KBYY 160335Z AUTO 36009KT 10SM CLR 23/19 A3007 RMK AO2 T02310195
KBYY 160315Z AUTO 36008KT 10SM CLR 23/19 A3006 RMK AO2 T02340196
KBYY 160255Z AUTO 35008KT 10SM SCT031 SCT037 23/20 A3005 RMK AO2 T02350199
KBYY 160235Z AUTO 36008KT 10SM SCT031 SCT037 23/20 A3004 RMK AO2 T02380204
KBYY 160215Z AUTO 35009KT 10SM SCT030 SCT040 23/21 A3002 RMK AO2 T02400211
KBYY 160155Z AUTO 35008KT 10SM SCT028 BKN036 OVC065 23/21 A3000 RMK AO2 T02430216
KBYY 160135Z AUTO 32007KT 10SM SCT032 BKN039 BKN048 24/21 A2999 RMK AO2 T02320214
KBYY 160115Z AUTO 00000KT 10SM SCT046 22/21 A2997 RMK AO2 T02240210
KBYY 160055Z AUTO 00000KT 10SM CLR 22/20 A2995 RMK AO2 T02240204
KBYY 160035Z AUTO 00000KT 10SM CLR 22/20 A2995 RMK AO2 T02230207
KBYY 160015Z AUTO 24003KT 10SM CLR 22/20 A2995 RMK AO2 T02240206
KBYY 152355Z AUTO 16005KT 10SM CLR 22/20 A2995 RMK AO2 P0004 T02260203
KBYY 152335Z AUTO 18008KT 10SM SCT050 SCT060 BKN075 22/20 A2995 RMK AO2 P0004 T02290207
KBYY 152315Z AUTO 16010KT 7SM RA SCT028 BKN055 OVC075 23/22 A2995 RMK AO2 P0003 T02410215
KBYY 152255Z AUTO 05004KT 2SM +RA SCT014 BKN027 OVC033 26/21 A2995 RMK AO2 P0013 T02680223
KBYY 152235Z AUTO 13003KT 10SM BKN035 BKN046 27/22 A2993 RMK AO2 T02750231
KBYY 152215Z AUTO 00000KT 10SM SCT035 BKN045 BKN050 27/22 A2991 RMK AO2 T02700223
KBYY 152155Z AUTO 03006G09KT 10SM BKN035 BKN047 OVC060 27/21 A2990 RMK AO2 T02970233
KBYY 152135Z AUTO 25006KT 10SM SCT036 31/24 A2990 RMK AO2 T03150242
KBYY 152115Z AUTO 25006KT 10SM BKN036 BKN055 31/23 A2990 RMK AO2 T03180241
KBYY 152055Z AUTO 24005KT 10SM SCT036 SCT041 31/23 A2990 RMK AO2 T03180240
KBYY 152035Z AUTO 21005KT 10SM SCT034 SCT042 31/23 A2990 RMK AO2 T03140239
KBYY 152015Z AUTO 23005KT 10SM SCT039 SCT045 31/23 A2991 RMK AO2 T03160236
KBYY 151955Z AUTO 24006KT 10SM SCT037 BKN047 BKN060 32/23 A2991 RMK AO2 T03150238
KBYY 151935Z AUTO 23007KT 10SM BKN035 BKN044 31/24 A2992 RMK AO2 T03170242
KBYY 151915Z AUTO 24008KT 10SM BKN033 OVC044 31/24 A2992 RMK AO2 T03140241
KBYY 151855Z AUTO 26006KT 10SM BKN033 BKN039 OVC047 31/23 A2993 RMK AO2 T03110240
KBYY 151835Z AUTO 23003KT 10SM SCT033 SCT046 BKN070 31/23 A2994 RMK AO2 T03070240
KBYY 151815Z AUTO 25006KT 10SM SCT050 30/23 A2995 RMK AO2 T03080242
KBYY 151755Z AUTO 25005KT 10SM SCT035 SCT042 31/23 A2995 RMK AO2 T03100239
KBYY 151735Z AUTO 23003KT 10SM SCT035 SCT048 SCT070 30/23 A2995 RMK AO2 T03050234
KBYY 151715Z AUTO 23005KT 10SM SCT028 SCT038 SCT060 30/23 A2996 RMK AO2 T03050241
KBYY 151655Z AUTO 24003KT 10SM BKN026 BKN031 BKN038 29/24 A2997 RMK AO2 T02980242
KBYY 151635Z AUTO 26005KT 10SM SCT026 BKN045 BKN060 30/24 A2997 RMK AO2 T03000243
KBYY 151615Z AUTO 20004KT 10SM SCT021 SCT029 BKN049 29/23 A2997 RMK AO2 T02880241
KBYY 151555Z AUTO 24005KT 10SM BKN021 BKN028 BKN044 28/24 A2997 RMK AO2 T02880246
KBYY 151535Z AUTO 21005KT 10SM SCT017 SCT026 BKN045 28/24 A2997 RMK AO2 T02840247
KBYY 151515Z AUTO 23005KT 10SM BKN017 28/25 A2996 RMK AO2 T02800249
KBYY 151455Z AUTO 20005KT 10SM SCT015 27/25 A2995 RMK AO2 T02770254
KBYY 151435Z AUTO 20005KT 10SM CLR 27/25 A2995 RMK AO2 T02710258
KBYY 151415Z AUTO 19004KT 10SM CLR 26/26 A2994 RMK AO2 T02640258
KBYY 151355Z AUTO 17004KT 10SM CLR 26/25 A2992 RMK AO2 T02560254
KBYY 151335Z AUTO 00000KT 5SM BR SCT050 25/25 A2992 RMK AO2 T02470245
KBYY 151315Z AUTO 00000KT 7SM BKN050 24/24 A2992 RMK AO2 T02460244
KBYY 151255Z AUTO 00000KT 5SM BR OVC050 25/24 A2991 RMK AO2 T02470245
KBYY 151235Z AUTO 00000KT 7SM OVC050 24/24 A2991 RMK AO2 T02440241
KBYY 151215Z AUTO 00000KT 7SM OVC050 23/23 A2990 RMK AO2 T02410239
KBYY 151155Z AUTO 00000KT 7SM OVC050 23/23 A2990 RMK AO2 T02390236
KBYY 151135Z AUTO 00000KT 5SM BR SCT020 SCT026 OVC050 23/23 A2990 RMK AO2 T02380237
KBYY 151115Z AUTO 00000KT 5SM BR SCT020 SCT024 OVC050 23/23 A2989 RMK AO2 T02370236
KBYY 151055Z AUTO 00000KT 2 1/2SM BR OVC050 23/23 A2988 RMK AO2 T02370236
KBYY 151035Z AUTO 00000KT 5SM BR OVC050 23/23 A2988 RMK AO2 T02370236
KBYY 151015Z AUTO 00000KT 1 3/4SM BR SCT021 OVC050 23/23 A2988 RMK AO2 T02400239
KBYY 150955Z AUTO 00000KT 1 1/4SM BR SCT021 OVC050 23/23 A2988 RMK AO2 T02390239
KBYY 150935Z AUTO 00000KT 1 1/4SM BR OVC050 24/23 A2987 RMK AO2 T02410240
KBYY 150915Z AUTO 00000KT 1/2SM FG BKN050 23/23 A2987 RMK AO2 T02400239
KBYY 150855Z AUTO 00000KT 1 1/2SM BR VV007 23/23 A2987 RMK AO2 T02390238
KBYY 150835Z AUTO 14004KT 5SM BR SCT043 SCT050 23/23 A2987 RMK AO2 T02400240
KBYY 150815Z AUTO 13004KT 5SM BR SCT022 SCT036 BKN048 23/23 A2988 RMK AO2 T02380237
KBYY 150755Z AUTO 11003KT 5SM BR SCT019 SCT024 OVC048 23/23 A2988 RMK AO2 T02340233
KBYY 150735Z AUTO 12003KT 1 1/2SM BR BKN017 OVC048 23/23 A2988 RMK AO2 T02310230
KBYY 150715Z AUTO 11003KT 1/2SM FG OVC017 22/22 A2988 RMK AO2 T02290228
KBYY 150655Z AUTO 11003KT 3/4SM BR OVC019 22/22 A2988 RMK AO2 T02300228
KBYY 150635Z AUTO 00000KT 1/2SM FG OVC021 23/22 A2988 RMK AO2 T02340233
KBYY 150615Z AUTO 00000KT 1SM BR OVC021 23/23 A2987 RMK AO2 T02380237
KBYY 150555Z AUTO 00000KT 2SM BR CLR 23/23 A2987 RMK AO2 T02390238